sensor_id;sensor_type;location;lat;lon;timestamp;pressure;altitude;pressure_sealevel;temperature;humidity
6680;BME280;3376;42.664;23.346;2023-04-04T00:00:38;93104.75;;;8.83;100.00
6680;BME280;3376;42.664;23.346;2023-04-04T00:03:05;93102.41;;;8.88;100.00
6680;BME280;3376;42.664;23.346;2023-04-04T00:05:32;93102.97;;;8.83;100.00
6680;BME280;3376;42.664;23.346;2023-04-04T00:07:59;93102.97;;;8.90;100.00
6680;BME280;3376;42.664;23.346;2023-04-04T00:10:28;93004.75;;;8.26;100.00
6680;BME280;3376;42.664;23.346;2023-04-04T00:12:54;93108.34;;;8.88;100.00
6680;BME280;3376;42.664;23.346;2023-04-04T00:15:21;93110.34;;;8.93;100.00
6680;BME280;3376;42.664;23.346;2023-04-04T00:17:48;93119.88;;;8.92;100.00
6680;BME280;3376;42.664;23.346;2023-04-04T00:20:15;93124.41;;;8.97;100.00
6680;BME280;3376;42.664;23.346;2023-04-04T00:22:41;93120.66;;;8.93;100.00
6680;BME280;3376;42.664;23.346;2023-04-04T00:25:08;93132.56;;;9.00;100.00
6680;BME280;3376;42.664;23.346;2023-04-04T00:27:36;93122.44;;;9.05;100.00
6680;BME280;3376;42.664;23.346;2023-04-04T00:30:04;93117.06;;;9.07;100.00
6680;BME280;3376;42.664;23.346;2023-04-04T00:32:31;93124.63;;;9.08;100.00
6680;BME280;3376;42.664;23.346;2023-04-04T00:34:58;93117.06;;;9.07;100.00
6680;BME280;3376;42.664;23.346;2023-04-04T00:37:25;93112.91;;;9.06;100.00
6680;BME280;3376;42.664;23.346;2023-04-04T00:39:52;93097.41;;;9.06;100.00
6680;BME280;3376;42.664;23.346;2023-04-04T00:42:19;93103.97;;;8.95;100.00
6680;BME280;3376;42.664;23.346;2023-04-04T00:44:47;93095.63;;;9.00;100.00
6680;BME280;3376;42.664;23.346;2023-04-04T00:47:14;93092.03;;;9.01;100.00
6680;BME280;3376;42.664;23.346;2023-04-04T00:49:41;93090.25;;;9.08;100.00
6680;BME280;3376;42.664;23.346;2023-04-04T00:52:07;93084.72;;;8.98;100.00
6680;BME280;3376;42.664;23.346;2023-04-04T00:54:35;93077.34;;;9.01;100.00
6680;BME280;3376;42.664;23.346;2023-04-04T00:57:03;93066.63;;;8.98;100.00
6680;BME280;3376;42.664;23.346;2023-04-04T00:59:32;93063.84;;;8.93;100.00
6680;BME280;3376;42.664;23.346;2023-04-04T01:02:01;93065.22;;;9.02;100.00
6680;BME280;3376;42.664;23.346;2023-04-04T01:04:29;93063.44;;;8.83;100.00
6680;BME280;3376;42.664;23.346;2023-04-04T01:06:56;93091.84;;;8.83;100.00
6680;BME280;3376;42.664;23.346;2023-04-04T01:09:24;93094.84;;;8.80;100.00
6680;BME280;3376;42.664;23.346;2023-04-04T01:11:51;93089.09;;;8.71;100.00
6680;BME280;3376;42.664;23.346;2023-04-04T01:14:18;93078.56;;;8.53;100.00
6680;BME280;3376;42.664;23.346;2023-04-04T01:16:46;93102.19;;;8.63;100.00
6680;BME280;3376;42.664;23.346;2023-04-04T01:19:20;93098.41;;;8.59;100.00
6680;BME280;3376;42.664;23.346;2023-04-04T01:21:50;93001.72;;;7.96;100.00
6680;BME280;3376;42.664;23.346;2023-04-04T01:24:18;93102.78;;;8.46;100.00
6680;BME280;3376;42.664;23.346;2023-04-04T01:26:48;93109.13;;;8.56;100.00
6680;BME280;3376;42.664;23.346;2023-04-04T01:29:15;93119.25;;;8.45;100.00
6680;BME280;3376;42.664;23.346;2023-04-04T01:31:48;93106.94;;;8.33;100.00
6680;BME280;3376;42.664;23.346;2023-04-04T01:34:21;93107.31;;;8.30;100.00
6680;BME280;3376;42.664;23.346;2023-04-04T01:36:56;93098.78;;;8.23;100.00
6680;BME280;3376;42.664;23.346;2023-04-04T01:39:30;93088.47;;;8.23;100.00
6680;BME280;3376;42.664;23.346;2023-04-04T01:42:00;93110.31;;;8.27;100.00
6680;BME280;3376;42.664;23.346;2023-04-04T01:44:28;93095.56;;;8.21;100.00
6680;BME280;3376;42.664;23.346;2023-04-04T01:46:55;92917.09;;;7.07;100.00
6680;BME280;3376;42.664;23.346;2023-04-04T01:49:22;93080.50;;;8.18;100.00
6680;BME280;3376;42.664;23.346;2023-04-04T01:51:49;93070.22;;;8.25;100.00
6680;BME280;3376;42.664;23.346;2023-04-04T01:54:16;93064.84;;;8.33;100.00
6680;BME280;3376;42.664;23.346;2023-04-04T01:56:43;93044.22;;;8.33;100.00
6680;BME280;3376;42.664;23.346;2023-04-04T01:59:11;93037.66;;;8.37;100.00
6680;BME280;3376;42.664;23.346;2023-04-04T02:01:38;93045.63;;;8.36;100.00
6680;BME280;3376;42.664;23.346;2023-04-04T02:04:05;93056.31;;;8.46;100.00
6680;BME280;3376;42.664;23.346;2023-04-04T02:06:32;93054.94;;;8.50;100.00
6680;BME280;3376;42.664;23.346;2023-04-04T02:08:59;93057.13;;;8.46;100.00
6680;BME280;3376;42.664;23.346;2023-04-04T02:11:26;93036.28;;;8.35;100.00
6680;BME280;3376;42.664;23.346;2023-04-04T02:13:53;93051.16;;;8.46;100.00
6680;BME280;3376;42.664;23.346;2023-04-04T02:16:21;93051.56;;;8.49;100.00
6680;BME280;3376;42.664;23.346;2023-04-04T02:18:47;93052.78;;;8.47;100.00
6680;BME280;3376;42.664;23.346;2023-04-04T02:21:14;93047.63;;;8.47;100.00
6680;BME280;3376;42.664;23.346;2023-04-04T02:23:41;93039.88;;;8.47;100.00
6680;BME280;3376;42.664;23.346;2023-04-04T02:26:08;93037.50;;;8.52;100.00
6680;BME280;3376;42.664;23.346;2023-04-04T02:28:35;92927.34;;;7.80;100.00
6680;BME280;3376;42.664;23.346;2023-04-04T02:31:01;93047.59;;;8.60;100.00
6680;BME280;3376;42.664;23.346;2023-04-04T02:33:30;93051.56;;;8.62;100.00
6680;BME280;3376;42.664;23.346;2023-04-04T02:35:57;93050.78;;;8.62;100.00
6680;BME280;3376;42.664;23.346;2023-04-04T02:38:24;93047.00;;;8.58;100.00
6680;BME280;3376;42.664;23.346;2023-04-04T02:40:51;93056.34;;;8.59;100.00
6680;BME280;3376;42.664;23.346;2023-04-04T02:43:18;93044.22;;;8.53;100.00
6680;BME280;3376;42.664;23.346;2023-04-04T02:45:46;93051.97;;;8.53;100.00
6680;BME280;3376;42.664;23.346;2023-04-04T02:48:13;93047.22;;;8.43;100.00
6680;BME280;3376;42.664;23.346;2023-04-04T02:50:42;93051.97;;;8.53;100.00
6680;BME280;3376;42.664;23.346;2023-04-04T02:53:08;93060.72;;;8.52;100.00
6680;BME280;3376;42.664;23.346;2023-04-04T02:55:35;93052.97;;;8.52;100.00
6680;BME280;3376;42.664;23.346;2023-04-04T02:58:02;92995.59;;;8.23;100.00
6680;BME280;3376;42.664;23.346;2023-04-04T03:00:29;93056.94;;;8.67;100.00
6680;BME280;3376;42.664;23.346;2023-04-04T03:02:56;93048.19;;;8.68;100.00
6680;BME280;3376;42.664;23.346;2023-04-04T03:05:23;93049.38;;;8.66;100.00
6680;BME280;3376;42.664;23.346;2023-04-04T03:07:53;93055.31;;;8.73;100.00
6680;BME280;3376;42.664;23.346;2023-04-04T03:10:21;93053.94;;;8.77;100.00
6680;BME280;3376;42.664;23.346;2023-04-04T03:12:48;93057.53;;;8.76;100.00
6680;BME280;3376;42.664;23.346;2023-04-04T03:15:15;93049.78;;;8.76;100.00
6680;BME280;3376;42.664;23.346;2023-04-04T03:17:42;93058.28;;;8.83;100.00
6680;BME280;3376;42.664;23.346;2023-04-04T03:20:11;93061.09;;;8.88;100.00
6680;BME280;3376;42.664;23.346;2023-04-04T03:22:38;93063.47;;;8.89;100.00
6680;BME280;3376;42.664;23.346;2023-04-04T03:25:07;93061.66;;;8.90;100.00
6680;BME280;3376;42.664;23.346;2023-04-04T03:27:34;93065.44;;;8.94;100.00
6680;BME280;3376;42.664;23.346;2023-04-04T03:30:01;93059.47;;;9.00;100.00
6680;BME280;3376;42.664;23.346;2023-04-04T03:32:28;93039.84;;;8.86;100.00
6680;BME280;3376;42.664;23.346;2023-04-04T03:34:55;93064.03;;;8.98;100.00
6680;BME280;3376;42.664;23.346;2023-04-04T03:37:21;93069.19;;;9.04;100.00
6680;BME280;3376;42.664;23.346;2023-04-04T03:39:48;93070.75;;;9.12;100.00
6680;BME280;3376;42.664;23.346;2023-04-04T03:42:17;92996.78;;;8.67;100.00
6680;BME280;3376;42.664;23.346;2023-04-04T03:44:43;93035.25;;;8.88;100.00
6680;BME280;3376;42.664;23.346;2023-04-04T03:47:10;93062.25;;;9.05;100.00
6680;BME280;3376;42.664;23.346;2023-04-04T03:49:37;93043.56;;;8.90;100.00
6680;BME280;3376;42.664;23.346;2023-04-04T03:52:04;93077.91;;;9.16;100.00
6680;BME280;3376;42.664;23.346;2023-04-04T03:54:31;93062.41;;;9.16;100.00
6680;BME280;3376;42.664;23.346;2023-04-04T03:56:59;93066.53;;;9.24;100.00
6680;BME280;3376;42.664;23.346;2023-04-04T03:59:28;93045.56;;;9.01;100.00
6680;BME280;3376;42.664;23.346;2023-04-04T04:01:54;93054.47;;;9.11;100.00
6680;BME280;3376;42.664;23.346;2023-04-04T04:04:21;93064.59;;;9.13;100.00
6680;BME280;3376;42.664;23.346;2023-04-04T04:06:48;93056.44;;;9.16;100.00
6680;BME280;3376;42.664;23.346;2023-04-04T04:09:15;93054.63;;;9.23;100.00
6680;BME280;3376;42.664;23.346;2023-04-04T04:11:43;93050.69;;;9.07;100.00
6680;BME280;3376;42.664;23.346;2023-04-04T04:14:10;93053.47;;;9.12;100.00
6680;BME280;3376;42.664;23.346;2023-04-04T04:16:39;93052.28;;;9.15;100.00
6680;BME280;3376;42.664;23.346;2023-04-04T04:19:06;93066.97;;;9.21;100.00
6680;BME280;3376;42.664;23.346;2023-04-04T04:21:33;93037.03;;;8.94;100.00
6680;BME280;3376;42.664;23.346;2023-04-04T04:24:00;93050.75;;;8.88;100.00
6680;BME280;3376;42.664;23.346;2023-04-04T04:26:27;93050.16;;;8.92;100.00
6680;BME280;3376;42.664;23.346;2023-04-04T04:28:54;93080.88;;;9.20;100.00
6680;BME280;3376;42.664;23.346;2023-04-04T04:31:20;93076.34;;;9.02;100.00
6680;BME280;3376;42.664;23.346;2023-04-04T04:33:48;93058.50;;;8.88;100.00
6680;BME280;3376;42.664;23.346;2023-04-04T04:36:15;93083.31;;;9.08;100.00
6680;BME280;3376;42.664;23.346;2023-04-04T04:38:42;93062.28;;;8.79;100.00
6680;BME280;3376;42.664;23.346;2023-04-04T04:41:09;93100.38;;;8.90;100.00
6680;BME280;3376;42.664;23.346;2023-04-04T04:43:36;93094.44;;;8.83;100.00
6680;BME280;3376;42.664;23.346;2023-04-04T04:46:03;93099.22;;;8.86;100.00
6680;BME280;3376;42.664;23.346;2023-04-04T04:48:29;93099.78;;;8.81;100.00
6680;BME280;3376;42.664;23.346;2023-04-04T04:50:58;93102.41;;;8.88;100.00
6680;BME280;3376;42.664;23.346;2023-04-04T04:53:25;93113.69;;;8.87;100.00
6680;BME280;3376;42.664;23.346;2023-04-04T04:55:52;93103.16;;;8.88;100.00
6680;BME280;3376;42.664;23.346;2023-04-04T04:58:18;93116.69;;;8.90;100.00
6680;BME280;3376;42.664;23.346;2023-04-04T05:00:48;93107.56;;;8.88;100.00
6680;BME280;3376;42.664;23.346;2023-04-04T05:03:15;93105.16;;;8.93;100.00
6680;BME280;3376;42.664;23.346;2023-04-04T05:05:41;93115.69;;;8.91;100.00
6680;BME280;3376;42.664;23.346;2023-04-04T05:08:09;93121.03;;;8.90;100.00
6680;BME280;3376;42.664;23.346;2023-04-04T05:10:36;93127.59;;;8.99;100.00
6680;BME280;3376;42.664;23.346;2023-04-04T05:13:03;93130.59;;;9.02;100.00
6680;BME280;3376;42.664;23.346;2023-04-04T05:15:30;93134.38;;;9.00;100.00
6680;BME280;3376;42.664;23.346;2023-04-04T05:17:57;93114.28;;;9.02;100.00
6680;BME280;3376;42.664;23.346;2023-04-04T05:20:24;93129.56;;;9.16;100.00
6680;BME280;3376;42.664;23.346;2023-04-04T05:22:51;93145.88;;;9.17;100.00
6680;BME280;3376;42.664;23.346;2023-04-04T05:25:19;93140.09;;;9.28;100.00
6680;BME280;3376;42.664;23.346;2023-04-04T05:27:46;93138.28;;;9.35;100.00
6680;BME280;3376;42.664;23.346;2023-04-04T05:30:14;93134.50;;;9.31;100.00
6680;BME280;3376;42.664;23.346;2023-04-04T05:32:43;93112.69;;;9.14;100.00
6680;BME280;3376;42.664;23.346;2023-04-04T05:35:10;93012.66;;;8.64;100.00
6680;BME280;3376;42.664;23.346;2023-04-04T05:37:38;93140.66;;;9.43;100.00
6680;BME280;3376;42.664;23.346;2023-04-04T05:40:06;93145.63;;;9.51;100.00
6680;BME280;3376;42.664;23.346;2023-04-04T05:42:35;93137.47;;;9.47;100.00
6680;BME280;3376;42.664;23.346;2023-04-04T05:45:01;93149.16;;;9.63;100.00
6680;BME280;3376;42.664;23.346;2023-04-04T05:47:29;93129.22;;;9.70;100.00
6680;BME280;3376;42.664;23.346;2023-04-04T05:49:55;93139.16;;;9.80;100.00
6680;BME280;3376;42.664;23.346;2023-04-04T05:52:22;93147.06;;;9.91;100.00
6680;BME280;3376;42.664;23.346;2023-04-04T05:54:49;93137.16;;;9.82;100.00
6680;BME280;3376;42.664;23.346;2023-04-04T05:57:16;93153.84;;;9.86;100.00
6680;BME280;3376;42.664;23.346;2023-04-04T05:59:44;93139.72;;;9.88;100.00
6680;BME280;3376;42.664;23.346;2023-04-04T06:02:11;93154.97;;;10.03;100.00
6680;BME280;3376;42.664;23.346;2023-04-04T06:04:38;93126.97;;;9.93;100.00
6680;BME280;3376;42.664;23.346;2023-04-04T06:07:05;93147.59;;;10.06;100.00
6680;BME280;3376;42.664;23.346;2023-04-04T06:09:32;93129.00;;;10.29;100.00
6680;BME280;3376;42.664;23.346;2023-04-04T06:12:00;93164.13;;;10.49;100.00
6680;BME280;3376;42.664;23.346;2023-04-04T06:14:28;93164.72;;;10.51;100.00
6680;BME280;3376;42.664;23.346;2023-04-04T06:16:57;93158.78;;;10.44;100.00
6680;BME280;3376;42.664;23.346;2023-04-04T06:19:24;93171.19;;;10.36;100.00
6680;BME280;3376;42.664;23.346;2023-04-04T06:21:51;93136.41;;;10.25;100.00
6680;BME280;3376;42.664;23.346;2023-04-04T06:24:17;93144.91;;;10.32;100.00
6680;BME280;3376;42.664;23.346;2023-04-04T06:26:44;93138.13;;;10.38;100.00
6680;BME280;3376;42.664;23.346;2023-04-04T06:29:15;93167.16;;;10.46;100.00
6680;BME280;3376;42.664;23.346;2023-04-04T06:31:42;93040.16;;;9.66;100.00
6680;BME280;3376;42.664;23.346;2023-04-04T06:34:10;93180.22;;;10.58;100.00
6680;BME280;3376;42.664;23.346;2023-04-04T06:36:37;93181.34;;;10.68;100.00
6680;BME280;3376;42.664;23.346;2023-04-04T06:39:03;93186.97;;;10.65;100.00
6680;BME280;3376;42.664;23.346;2023-04-04T06:41:30;93191.47;;;10.45;100.00
6680;BME280;3376;42.664;23.346;2023-04-04T06:43:57;93189.94;;;10.31;100.00
6680;BME280;3376;42.664;23.346;2023-04-04T06:46:24;93211.06;;;10.28;100.00
6680;BME280;3376;42.664;23.346;2023-04-04T06:48:51;93214.72;;;9.88;100.00
6680;BME280;3376;42.664;23.346;2023-04-04T06:51:20;93200.50;;;9.07;100.00
6680;BME280;3376;42.664;23.346;2023-04-04T06:53:47;93229.31;;;9.04;100.00
6680;BME280;3376;42.664;23.346;2023-04-04T06:56:14;93227.66;;;8.58;100.00
6680;BME280;3376;42.664;23.346;2023-04-04T06:58:41;93228.59;;;8.37;100.00
6680;BME280;3376;42.664;23.346;2023-04-04T07:01:08;93252.25;;;8.06;100.00
6680;BME280;3376;42.664;23.346;2023-04-04T07:03:36;93245.34;;;7.73;100.00
6680;BME280;3376;42.664;23.346;2023-04-04T07:06:03;93267.72;;;7.45;100.00
6680;BME280;3376;42.664;23.346;2023-04-04T07:08:31;93280.81;;;7.22;100.00
6680;BME280;3376;42.664;23.346;2023-04-04T07:10:58;93290.63;;;6.91;100.00
6680;BME280;3376;42.664;23.346;2023-04-04T07:13:25;93292.00;;;6.87;100.00
6680;BME280;3376;42.664;23.346;2023-04-04T07:15:52;93295.66;;;6.78;100.00
6680;BME280;3376;42.664;23.346;2023-04-04T07:18:18;93306.94;;;6.77;100.00
6680;BME280;3376;42.664;23.346;2023-04-04T07:20:45;93309.91;;;6.59;100.00
6680;BME280;3376;42.664;23.346;2023-04-04T07:23:12;93314.31;;;6.44;100.00
6680;BME280;3376;42.664;23.346;2023-04-04T07:25:41;93312.94;;;6.48;100.00
6680;BME280;3376;42.664;23.346;2023-04-04T07:28:07;93313.94;;;6.33;100.00
6680;BME280;3376;42.664;23.346;2023-04-04T07:30:34;93321.75;;;6.25;100.00
6680;BME280;3376;42.664;23.346;2023-04-04T07:33:01;93318.41;;;5.95;100.00
6680;BME280;3376;42.664;23.346;2023-04-04T07:35:28;93312.66;;;5.93;100.00
6680;BME280;3376;42.664;23.346;2023-04-04T07:37:55;93337.72;;;5.91;100.00
6680;BME280;3376;42.664;23.346;2023-04-04T07:40:23;93344.44;;;5.92;100.00
6680;BME280;3376;42.664;23.346;2023-04-04T07:42:51;93345.09;;;5.94;100.00
6680;BME280;3376;42.664;23.346;2023-04-04T07:45:19;93306.44;;;5.87;100.00
6680;BME280;3376;42.664;23.346;2023-04-04T07:47:46;93339.84;;;6.02;100.00
6680;BME280;3376;42.664;23.346;2023-04-04T07:50:13;93351.38;;;6.06;100.00
6680;BME280;3376;42.664;23.346;2023-04-04T07:52:41;93365.47;;;5.95;100.00
6680;BME280;3376;42.664;23.346;2023-04-04T07:55:08;93344.28;;;5.93;100.00
6680;BME280;3376;42.664;23.346;2023-04-04T07:57:36;93343.50;;;5.93;100.00
6680;BME280;3376;42.664;23.346;2023-04-04T08:00:06;93354.19;;;5.96;100.00
6680;BME280;3376;42.664;23.346;2023-04-04T08:02:34;93355.31;;;5.79;100.00
6680;BME280;3376;42.664;23.346;2023-04-04T08:05:01;93336.84;;;5.61;100.00
6680;BME280;3376;42.664;23.346;2023-04-04T08:07:28;93378.50;;;5.71;100.00
6680;BME280;3376;42.664;23.346;2023-04-04T08:09:54;93372.56;;;5.71;100.00
6680;BME280;3376;42.664;23.346;2023-04-04T08:12:21;93376.47;;;5.67;100.00
6680;BME280;3376;42.664;23.346;2023-04-04T08:14:48;93382.19;;;5.54;100.00
6680;BME280;3376;42.664;23.346;2023-04-04T08:17:16;93378.53;;;5.49;100.00
6680;BME280;3376;42.664;23.346;2023-04-04T08:19:44;93372.84;;;5.39;100.00
6680;BME280;3376;42.664;23.346;2023-04-04T08:22:11;93385.47;;;5.48;100.00
6680;BME280;3376;42.664;23.346;2023-04-04T08:24:38;93384.47;;;5.49;100.00
6680;BME280;3376;42.664;23.346;2023-04-04T08:27:05;93399.31;;;5.62;100.00
6680;BME280;3376;42.664;23.346;2023-04-04T08:29:32;93395.84;;;5.69;100.00
6680;BME280;3376;42.664;23.346;2023-04-04T08:31:59;93407.41;;;5.73;100.00
6680;BME280;3376;42.664;23.346;2023-04-04T08:34:28;93386.94;;;5.43;100.00
6680;BME280;3376;42.664;23.346;2023-04-04T08:36:54;93405.38;;;5.46;100.00
6680;BME280;3376;42.664;23.346;2023-04-04T08:39:21;93413.72;;;5.26;100.00
6680;BME280;3376;42.664;23.346;2023-04-04T08:41:53;93416.94;;;5.20;100.00
6680;BME280;3376;42.664;23.346;2023-04-04T08:44:24;93389.94;;;5.01;100.00
6680;BME280;3376;42.664;23.346;2023-04-04T08:46:53;93418.88;;;5.18;100.00
6680;BME280;3376;42.664;23.346;2023-04-04T08:49:20;93427.38;;;5.18;100.00
6680;BME280;3376;42.664;23.346;2023-04-04T08:51:50;93431.22;;;5.22;100.00
6680;BME280;3376;42.664;23.346;2023-04-04T08:54:19;93426.06;;;5.22;100.00
6680;BME280;3376;42.664;23.346;2023-04-04T08:56:47;93424.16;;;5.24;100.00
6680;BME280;3376;42.664;23.346;2023-04-04T08:59:13;93421.31;;;5.11;100.00
6680;BME280;3376;42.664;23.346;2023-04-04T09:01:43;93440.38;;;5.17;100.00
6680;BME280;3376;42.664;23.346;2023-04-04T09:04:10;93425.22;;;5.07;100.00
6680;BME280;3376;42.664;23.346;2023-04-04T09:06:37;93439.50;;;5.02;100.00
6680;BME280;3376;42.664;23.346;2023-04-04T09:09:06;93446.69;;;5.06;100.00
6680;BME280;3376;42.664;23.346;2023-04-04T09:11:33;93446.22;;;5.03;100.00
6680;BME280;3376;42.664;23.346;2023-04-04T09:14:02;93431.00;;;5.01;100.00
6680;BME280;3376;42.664;23.346;2023-04-04T09:16:29;93456.25;;;5.20;100.00
6680;BME280;3376;42.664;23.346;2023-04-04T09:18:56;93455.53;;;5.34;100.00
6680;BME280;3376;42.664;23.346;2023-04-04T09:21:23;93440.78;;;5.28;100.00
6680;BME280;3376;42.664;23.346;2023-04-04T09:23:57;93452.91;;;5.42;100.00
6680;BME280;3376;42.664;23.346;2023-04-04T09:26:25;93429.28;;;5.24;100.00
6680;BME280;3376;42.664;23.346;2023-04-04T09:28:52;93443.16;;;5.38;100.00
6680;BME280;3376;42.664;23.346;2023-04-04T09:31:19;93425.78;;;5.17;100.00
6680;BME280;3376;42.664;23.346;2023-04-04T09:33:47;93349.19;;;4.53;100.00
6680;BME280;3376;42.664;23.346;2023-04-04T09:36:14;93463.25;;;5.26;100.00
6680;BME280;3376;42.664;23.346;2023-04-04T09:38:42;93452.31;;;5.32;100.00
6680;BME280;3376;42.664;23.346;2023-04-04T09:41:09;93454.19;;;5.38;100.00
6680;BME280;3376;42.664;23.346;2023-04-04T09:43:43;93458.59;;;5.52;100.00
6680;BME280;3376;42.664;23.346;2023-04-04T09:46:10;93448.78;;;5.56;100.00
6680;BME280;3376;42.664;23.346;2023-04-04T09:48:37;93456.38;;;5.49;100.00
6680;BME280;3376;42.664;23.346;2023-04-04T09:51:05;93447.84;;;5.57;100.00
6680;BME280;3376;42.664;23.346;2023-04-04T09:53:33;93447.59;;;5.44;100.00
6680;BME280;3376;42.664;23.346;2023-04-04T09:56:01;93467.41;;;5.58;100.00
6680;BME280;3376;42.664;23.346;2023-04-04T09:58:29;93456.94;;;5.59;100.00
6680;BME280;3376;42.664;23.346;2023-04-04T10:01:02;93479.25;;;5.59;100.00
6680;BME280;3376;42.664;23.346;2023-04-04T10:03:31;93472.53;;;5.58;100.00
6680;BME280;3376;42.664;23.346;2023-04-04T10:06:02;93444.19;;;5.51;100.00
6680;BME280;3376;42.664;23.346;2023-04-04T10:08:30;93477.22;;;5.77;100.00
6680;BME280;3376;42.664;23.346;2023-04-04T10:10:57;93479.44;;;5.80;100.00
6680;BME280;3376;42.664;23.346;2023-04-04T10:13:25;93395.72;;;5.26;100.00
6680;BME280;3376;42.664;23.346;2023-04-04T10:15:53;93479.13;;;5.83;100.00
6680;BME280;3376;42.664;23.346;2023-04-04T10:18:23;93489.34;;;5.91;100.00
6680;BME280;3376;42.664;23.346;2023-04-04T10:20:51;93492.47;;;6.01;100.00
6680;BME280;3376;42.664;23.346;2023-04-04T10:23:18;93484.94;;;6.00;100.00
6680;BME280;3376;42.664;23.346;2023-04-04T10:25:47;93473.44;;;6.10;100.00
6680;BME280;3376;42.664;23.346;2023-04-04T10:28:15;93467.34;;;5.88;100.00
6680;BME280;3376;42.664;23.346;2023-04-04T10:30:43;93513.56;;;6.34;100.00
6680;BME280;3376;42.664;23.346;2023-04-04T10:33:25;93503.34;;;6.26;100.00
6680;BME280;3376;42.664;23.346;2023-04-04T10:35:57;93517.94;;;6.11;100.00
6680;BME280;3376;42.664;23.346;2023-04-04T10:38:28;93490.88;;;5.77;100.00
6680;BME280;3376;42.664;23.346;2023-04-04T10:40:58;93492.69;;;5.69;100.00
6680;BME280;3376;42.664;23.346;2023-04-04T10:43:31;93510.50;;;5.70;100.00
6680;BME280;3376;42.664;23.346;2023-04-04T10:46:05;93513.84;;;5.71;100.00
6680;BME280;3376;42.664;23.346;2023-04-04T10:48:35;93521.66;;;5.85;100.00
6680;BME280;3376;42.664;23.346;2023-04-04T10:51:03;93524.06;;;5.87;100.00
6680;BME280;3376;42.664;23.346;2023-04-04T10:53:31;93520.50;;;5.65;100.00
6680;BME280;3376;42.664;23.346;2023-04-04T10:55:58;93529.63;;;5.68;100.00
6680;BME280;3376;42.664;23.346;2023-04-04T10:58:27;93534.28;;;5.64;100.00
6680;BME280;3376;42.664;23.346;2023-04-04T11:00:55;93524.38;;;5.61;100.00
6680;BME280;3376;42.664;23.346;2023-04-04T11:03:22;93530.81;;;5.57;100.00
6680;BME280;3376;42.664;23.346;2023-04-04T11:05:50;93524.06;;;5.56;100.00
6680;BME280;3376;42.664;23.346;2023-04-04T11:08:22;93534.34;;;5.56;100.00
6680;BME280;3376;42.664;23.346;2023-04-04T11:10:50;93386.59;;;4.70;100.00
6680;BME280;3376;42.664;23.346;2023-04-04T11:13:18;93515.97;;;5.45;100.00
6680;BME280;3376;42.664;23.346;2023-04-04T11:15:54;93545.28;;;5.50;100.00
6680;BME280;3376;42.664;23.346;2023-04-04T11:18:22;93539.66;;;5.55;100.00
6680;BME280;3376;42.664;23.346;2023-04-04T11:21:13;93533.38;;;5.57;100.00
6680;BME280;3376;42.664;23.346;2023-04-04T11:26:42;93555.84;;;5.55;100.00
6680;BME280;3376;42.664;23.346;2023-04-04T11:29:20;93527.72;;;5.39;100.00
6680;BME280;3376;42.664;23.346;2023-04-04T11:31:48;93555.38;;;5.60;100.00
6680;BME280;3376;42.664;23.346;2023-04-04T11:34:28;93552.84;;;5.52;100.00
6680;BME280;3376;42.664;23.346;2023-04-04T11:36:57;93551.69;;;5.54;100.00
6680;BME280;3376;42.664;23.346;2023-04-04T11:39:28;93556.16;;;5.60;100.00
6680;BME280;3376;42.664;23.346;2023-04-04T11:41:58;93554.50;;;5.67;100.00
6680;BME280;3376;42.664;23.346;2023-04-04T11:44:28;93568.03;;;5.61;100.00
6680;BME280;3376;42.664;23.346;2023-04-04T11:46:59;93563.66;;;5.39;100.00
6680;BME280;3376;42.664;23.346;2023-04-04T11:49:27;93557.38;;;5.42;100.00
6680;BME280;3376;42.664;23.346;2023-04-04T11:51:57;93562.72;;;5.32;100.00
6680;BME280;3376;42.664;23.346;2023-04-04T11:54:25;93564.28;;;5.41;100.00
6680;BME280;3376;42.664;23.346;2023-04-04T11:56:52;93559.50;;;5.30;100.00
6680;BME280;3376;42.664;23.346;2023-04-04T11:59:20;93561.75;;;5.33;100.00
6680;BME280;3376;42.664;23.346;2023-04-04T12:01:47;93548.31;;;5.23;100.00
6680;BME280;3376;42.664;23.346;2023-04-04T12:04:16;93542.41;;;5.15;100.00
6680;BME280;3376;42.664;23.346;2023-04-04T12:06:46;93555.31;;;5.37;100.00
6680;BME280;3376;42.664;23.346;2023-04-04T12:09:17;93557.25;;;5.35;100.00
6680;BME280;3376;42.664;23.346;2023-04-04T12:11:45;93550.00;;;5.39;100.00
6680;BME280;3376;42.664;23.346;2023-04-04T12:14:16;93558.69;;;5.38;100.00
6680;BME280;3376;42.664;23.346;2023-04-04T12:16:43;93560.75;;;5.42;100.00
6680;BME280;3376;42.664;23.346;2023-04-04T12:19:10;93530.06;;;5.18;100.00
6680;BME280;3376;42.664;23.346;2023-04-04T12:21:37;93561.13;;;5.31;100.00
6680;BME280;3376;42.664;23.346;2023-04-04T12:24:05;93566.47;;;5.22;100.00
6680;BME280;3376;42.664;23.346;2023-04-04T12:26:35;93422.59;;;4.46;100.00
6680;BME280;3376;42.664;23.346;2023-04-04T12:29:02;93573.25;;;5.45;100.00
6680;BME280;3376;42.664;23.346;2023-04-04T12:31:31;93566.69;;;5.43;100.00
6680;BME280;3376;42.664;23.346;2023-04-04T12:33:58;93570.09;;;5.35;100.00
6680;BME280;3376;42.664;23.346;2023-04-04T12:36:25;93575.25;;;5.27;100.00
6680;BME280;3376;42.664;23.346;2023-04-04T12:38:57;93571.06;;;5.26;100.00
6680;BME280;3376;42.664;23.346;2023-04-04T12:41:24;93577.75;;;5.05;100.00
6680;BME280;3376;42.664;23.346;2023-04-04T12:43:58;93564.47;;;4.93;100.00
6680;BME280;3376;42.664;23.346;2023-04-04T12:46:26;93580.25;;;4.66;100.00
6680;BME280;3376;42.664;23.346;2023-04-04T12:48:54;93514.13;;;4.13;100.00
6680;BME280;3376;42.664;23.346;2023-04-04T12:51:20;93581.56;;;4.54;100.00
6680;BME280;3376;42.664;23.346;2023-04-04T12:53:55;93587.50;;;4.46;100.00
6680;BME280;3376;42.664;23.346;2023-04-04T12:56:25;93494.44;;;3.98;100.00
6680;BME280;3376;42.664;23.346;2023-04-04T12:58:59;93558.63;;;4.44;100.00
6680;BME280;3376;42.664;23.346;2023-04-04T13:01:26;93586.03;;;4.60;100.00
6680;BME280;3376;42.664;23.346;2023-04-04T13:03:53;93592.78;;;4.61;100.00
6680;BME280;3376;42.664;23.346;2023-04-04T13:06:20;93597.91;;;4.61;100.00
6680;BME280;3376;42.664;23.346;2023-04-04T13:08:50;93598.06;;;4.51;100.00
6680;BME280;3376;42.664;23.346;2023-04-04T13:11:17;93600.16;;;4.40;100.00
6680;BME280;3376;42.664;23.346;2023-04-04T13:13:44;93596.94;;;4.38;100.00
6680;BME280;3376;42.664;23.346;2023-04-04T13:16:27;93610.09;;;4.35;100.00